Swastika, Canada
Current Conditions -  °F | °C
As of 8:00 PM on Tuesday 21 Oct 2014 (Local Time) from CYXR Reporting Station
Clear Clear  
Wind Chill: 26°   Ceiling: Unl
Heat Index: 32°   Visibility: 9mi
Dew Point: 28°   Wind: 6mph
Humidity: 87%   Direction: 340°NNW
Pressure: 30.3"   Gusts: NA
Location:  48.1°N, 80.1°W
Report Text: CYXR 220000Z AUTO 34005KT 9SM CLR M00/M02 A3030 RMK SLP275
Loading
Personal Weather Stations






























Interactive Weather Map New forecast layout! Learn more

10-Day Weather Forecast

Advertisements
Track Severe Weather on mobile